Time;durP1;ratioP1;P1;durP2;ratioP2;P2;SDS_P1;SDS_P2;PMS_P1;PMS_P2;Temp;Humidity;BMP_temperature;BMP_pressure;BME280_temperature;BME280_humidity;BME280_pressure;Samples;Min_cycle;Max_cycle;Signal;HPM_P1;HPM_P2
2021/06/09 00:00:08;;;;;;;7.47;4.63;;;13.50;99.90;;;;;;5044050;28;20319;-91
2021/06/09 00:02:34;;;;;;;6.43;4.80;;;13.50;99.90;;;;;;5074609;28;20220;-91
2021/06/09 00:05:00;;;;;;;9.80;4.60;;;13.50;99.90;;;;;;5061125;28;20212;-91
2021/06/09 00:07:26;;;;;;;5.70;4.13;;;13.50;99.90;;;;;;5043957;28;20218;-91
2021/06/09 00:09:51;;;;;;;7.53;4.27;;;13.50;99.90;;;;;;5061239;28;20299;-90
2021/06/09 00:12:17;;;;;;;9.57;5.77;;;13.50;99.90;;;;;;5078429;28;20871;-91
2021/06/09 00:14:43;;;;;;;8.10;4.83;;;13.60;99.90;;;;;;5075933;28;20223;-90
2021/06/09 00:17:09;;;;;;;9.13;4.33;;;13.60;99.90;;;;;;5079254;28;20675;-90
2021/06/09 00:19:35;;;;;;;10.23;5.30;;;13.60;99.90;;;;;;5046875;28;20212;-90
2021/06/09 00:22:01;;;;;;;9.27;5.30;;;13.70;99.90;;;;;;5046494;28;20223;-90
2021/06/09 00:24:27;;;;;;;7.30;5.13;;;13.70;99.90;;;;;;5065674;28;20184;-89
2021/06/09 00:26:53;;;;;;;8.90;5.33;;;13.70;99.90;;;;;;5049353;28;20212;-89
2021/06/09 00:29:20;;;;;;;7.73;5.10;;;13.60;99.90;;;;;;5045417;28;20203;-89
2021/06/09 00:31:47;;;;;;;8.17;4.80;;;13.60;99.90;;;;;;5080591;28;20752;-89
2021/06/09 00:34:13;;;;;;;7.57;5.07;;;13.60;99.90;;;;;;5079771;28;20211;-89
2021/06/09 00:36:38;;;;;;;7.80;4.73;;;13.50;99.90;;;;;;5063097;28;20215;-89
2021/06/09 00:39:06;;;;;;;10.20;4.93;;;13.50;99.90;;;;;;5045301;28;20715;-88
2021/06/09 00:41:32;;;;;;;8.20;5.13;;;13.40;99.90;;;;;;5079572;28;20771;-89
2021/06/09 00:44:00;;;;;;;13.30;5.83;;;13.30;99.90;;;;;;5079079;28;20236;-89
2021/06/09 00:46:36;;;;;;;9.43;6.37;;;13.30;99.90;;;;;;5094765;28;21253;-88
2021/06/09 00:49:02;;;;;;;9.63;5.33;;;13.40;99.90;;;;;;5078018;28;20188;-89
2021/06/09 00:51:28;;;;;;;9.77;5.67;;;13.40;99.90;;;;;;5080942;28;20238;-88
2021/06/09 00:53:58;;;;;;;7.43;5.30;;;13.40;99.90;;;;;;5078428;28;20240;-89
2021/06/09 00:56:26;;;;;;;6.83;5.37;;;13.40;99.90;;;;;;5047568;28;20247;-88
2021/06/09 00:58:53;;;;;;;7.03;5.00;;;13.40;99.90;;;;;;5081470;28;20301;-88
2021/06/09 01:01:21;;;;;;;8.70;5.63;;;13.40;99.90;;;;;;5081110;28;20223;-89
2021/06/09 01:15:18;;;;;;;8.50;6.03;;;13.40;99.90;;;;;;5043405;28;97431;-86
2021/06/09 01:17:44;;;;;;;9.60;5.50;;;13.20;99.90;;;;;;5061541;28;20259;-86
2021/06/09 01:20:10;;;;;;;9.27;5.20;;;13.10;99.90;;;;;;5030885;28;20221;-84
2021/06/09 01:22:36;;;;;;;10.30;5.87;;;13.10;99.90;;;;;;5023728;28;20225;-85
2021/06/09 01:25:07;;;;;;;9.17;5.57;;;13.00;99.90;;;;;;5048466;28;20198;-86
2021/06/09 01:27:33;;;;;;;8.13;4.53;;;13.10;99.90;;;;;;5031441;28;20194;-87
2021/06/09 01:30:00;;;;;;;11.50;5.90;;;13.10;99.90;;;;;;5047631;28;20222;-83
2021/06/09 01:32:26;;;;;;;9.23;5.20;;;13.10;99.90;;;;;;5046894;28;20640;-84
2021/06/09 01:34:52;;;;;;;8.97;5.30;;;13.00;99.90;;;;;;5048186;28;20222;-84
2021/06/09 01:37:21;;;;;;;8.23;4.80;;;13.00;99.90;;;;;;5043333;28;20218;-85
2021/06/09 01:39:46;;;;;;;9.93;6.23;;;13.00;99.90;;;;;;5050065;28;20273;-86
2021/06/09 01:42:12;;;;;;;8.77;5.50;;;13.00;99.90;;;;;;5052310;28;20276;-84
2021/06/09 01:44:40;;;;;;;11.37;7.03;;;13.00;99.90;;;;;;5031388;28;20582;-87
2021/06/09 01:47:06;;;;;;;12.43;6.43;;;13.10;99.90;;;;;;5046315;28;20202;-85
2021/06/09 01:49:32;;;;;;;11.70;5.80;;;13.10;99.90;;;;;;5047045;28;20214;-84
2021/06/09 01:51:58;;;;;;;8.87;5.13;;;13.10;99.90;;;;;;5047243;28;20196;-85
2021/06/09 01:54:24;;;;;;;12.33;6.43;;;13.10;99.90;;;;;;5033605;28;20319;-86
2021/06/09 01:56:54;;;;;;;7.63;5.63;;;13.10;99.90;;;;;;5045534;28;20265;-85
2021/06/09 01:59:20;;;;;;;8.83;5.57;;;13.20;99.90;;;;;;5030758;28;20249;-85
2021/06/09 02:01:48;;;;;;;10.77;5.40;;;13.20;99.90;;;;;;5047150;28;20982;-86
2021/06/09 02:04:15;;;;;;;13.83;6.53;;;13.10;99.90;;;;;;5046562;28;20238;-85
2021/06/09 02:06:42;;;;;;;14.23;7.60;;;13.10;99.90;;;;;;5047177;28;20340;-85
2021/06/09 02:09:10;;;;;;;10.03;5.83;;;13.10;99.90;;;;;;5046322;28;20713;-87
2021/06/09 02:11:41;;;;;;;6.93;4.43;;;13.10;99.90;;;;;;5047108;28;20217;-85
2021/06/09 02:14:07;;;;;;;10.67;6.30;;;13.10;99.90;;;;;;5048044;28;20237;-84
2021/06/09 02:16:35;;;;;;;9.33;5.63;;;13.00;99.90;;;;;;5032502;28;20218;-85
2021/06/09 02:19:01;;;;;;;11.17;5.40;;;13.00;99.90;;;;;;5033458;28;20206;-84
2021/06/09 02:21:27;;;;;;;11.90;6.07;;;12.90;99.90;;;;;;5016821;28;20189;-84
2021/06/09 02:23:53;;;;;;;9.63;5.90;;;12.90;99.90;;;;;;5034270;28;20290;-84
2021/06/09 02:26:19;;;;;;;10.60;6.20;;;13.00;99.90;;;;;;5033261;28;20221;-86
2021/06/09 02:28:45;;;;;;;9.03;5.77;;;13.00;99.90;;;;;;5048508;28;20264;-85
2021/06/09 02:31:12;;;;;;;8.50;5.23;;;13.00;99.90;;;;;;5016226;28;20684;-86
2021/06/09 02:33:38;;;;;;;11.60;7.03;;;13.00;99.90;;;;;;5033073;28;20232;-84
2021/06/09 02:36:06;;;;;;;10.93;6.87;;;13.00;99.90;;;;;;5016422;28;20310;-84
2021/06/09 02:38:38;;;;;;;9.17;5.57;;;13.00;99.90;;;;;;5030761;28;20211;-86
2021/06/09 02:41:05;;;;;;;13.33;7.13;;;12.90;99.90;;;;;;5031840;28;20238;-84
2021/06/09 02:43:31;;;;;;;12.13;6.10;;;12.90;99.90;;;;;;5034367;28;20237;-86
2021/06/09 02:46:15;;;;;;;18.30;6.43;;;12.90;99.90;;;;;;5015087;28;20682;-85
2021/06/09 02:48:44;;;;;;;12.23;6.63;;;12.90;99.90;;;;;;5036249;28;20175;-86
2021/06/09 02:51:19;;;;;;;11.10;6.23;;;12.80;99.90;;;;;;5031146;28;20218;-84
2021/06/09 02:53:57;;;;;;;7.60;5.70;;;12.80;99.90;;;;;;5033349;28;20222;-86
2021/06/09 02:56:42;;;;;;;8.70;5.50;;;12.80;99.90;;;;;;5033250;28;20211;-86
2021/06/09 02:59:27;;;;;;;9.67;5.33;;;12.80;99.90;;;;;;5034665;28;20305;-86
2021/06/09 03:02:08;;;;;;;9.20;5.70;;;12.80;99.90;;;;;;5035208;28;20325;-85
2021/06/09 03:04:53;;;;;;;9.37;5.47;;;12.80;99.90;;;;;;5033499;28;20233;-85
2021/06/09 03:07:28;;;;;;;9.13;5.23;;;12.70;99.90;;;;;;5033687;28;20251;-86
2021/06/09 03:10:24;;;;;;;8.37;3.93;;;12.80;99.90;;;;;;5032035;28;20178;-83
2021/06/09 03:13:24;;;;;;;8.87;5.23;;;12.70;99.90;;;;;;5034305;28;20210;-86
2021/06/09 03:16:04;;;;;;;11.23;5.57;;;12.60;99.90;;;;;;5032349;28;20896;-86
2021/06/09 03:18:42;;;;;;;10.10;6.13;;;12.60;99.90;;;;;;5032813;28;20186;-86
2021/06/09 03:21:15;;;;;;;9.87;5.70;;;12.60;99.90;;;;;;5034017;28;20252;-85
2021/06/09 03:23:50;;;;;;;10.07;5.70;;;12.60;99.90;;;;;;5030325;28;20221;-85
2021/06/09 03:26:23;;;;;;;10.40;6.27;;;12.60;99.90;;;;;;5031858;28;20229;-86
2021/06/09 03:29:07;;;;;;;13.47;7.43;;;12.70;99.90;;;;;;5032907;28;20565;-85
2021/06/09 03:31:51;;;;;;;15.97;9.00;;;12.80;99.90;;;;;;5031012;28;20214;-85
2021/06/09 03:34:22;;;;;;;9.77;6.03;;;12.80;99.90;;;;;;5035051;28;20218;-84
2021/06/09 03:36:50;;;;;;;10.30;6.00;;;12.90;99.90;;;;;;5032271;28;20179;-85
2021/06/09 03:39:21;;;;;;;12.87;7.80;;;12.90;99.90;;;;;;5033173;28;20286;-85
2021/06/09 03:41:52;;;;;;;14.97;6.30;;;12.90;99.90;;;;;;5031534;28;20210;-84
2021/06/09 03:44:24;;;;;;;11.13;5.37;;;12.90;99.90;;;;;;5032367;28;20226;-84
2021/06/09 03:46:51;;;;;;;8.73;5.73;;;12.90;99.90;;;;;;5033283;28;20229;-84
2021/06/09 03:49:18;;;;;;;7.13;4.50;;;12.90;99.90;;;;;;5030687;28;20248;-85
2021/06/09 03:51:45;;;;;;;7.43;4.57;;;13.00;99.90;;;;;;5032572;28;20264;-85
2021/06/09 03:54:11;;;;;;;11.13;5.37;;;12.90;99.90;;;;;;5032476;28;20232;-84
2021/06/09 03:56:41;;;;;;;10.23;7.27;;;13.00;99.90;;;;;;5030539;28;20207;-85
2021/06/09 03:59:07;;;;;;;11.40;6.80;;;13.00;99.90;;;;;;5016622;28;20333;-84
2021/06/09 04:01:39;;;;;;;11.20;5.73;;;13.10;99.90;;;;;;5032378;28;20221;-84
2021/06/09 04:04:05;;;;;;;10.80;6.57;;;13.20;99.90;;;;;;5031151;28;20534;-86
2021/06/09 04:06:33;;;;;;;12.00;5.20;;;13.30;99.90;;;;;;5015724;28;20585;-84
2021/06/09 04:09:03;;;;;;;13.07;6.80;;;13.30;99.90;;;;;;5031352;28;20210;-85
2021/06/09 04:11:33;;;;;;;15.53;7.93;;;13.40;99.90;;;;;;5027159;28;20225;-85
2021/06/09 04:13:59;;;;;;;20.07;9.00;;;13.60;99.90;;;;;;5033662;28;20233;-84
2021/06/09 04:16:29;;;;;;;13.50;7.80;;;13.70;99.90;;;;;;5053600;28;20284;-86
2021/06/09 04:18:57;;;;;;;14.43;7.73;;;13.80;99.90;;;;;;5031702;28;20229;-87
2021/06/09 04:21:25;;;;;;;13.50;7.17;;;13.90;99.90;;;;;;5015622;28;20270;-85
2021/06/09 04:23:51;;;;;;;13.60;8.30;;;14.00;99.90;;;;;;5029088;28;20229;-86
2021/06/09 04:26:21;;;;;;;16.07;9.23;;;14.10;99.90;;;;;;5031844;28;20574;-85
2021/06/09 04:28:47;;;;;;;20.43;9.83;;;14.20;99.90;;;;;;5030482;28;20242;-85
2021/06/09 04:31:14;;;;;;;18.90;11.13;;;14.40;99.90;;;;;;5013986;28;20219;-87
2021/06/09 04:33:40;;;;;;;25.83;13.00;;;14.60;99.90;;;;;;5032702;28;20272;-85
2021/06/09 04:36:12;;;;;;;22.33;12.93;;;14.80;99.90;;;;;;5031115;28;20216;-86
2021/06/09 04:38:38;;;;;;;29.17;12.40;;;15.00;99.90;;;;;;5032014;28;20261;-86
2021/06/09 04:41:05;;;;;;;25.23;12.00;;;15.20;99.90;;;;;;5032368;28;20218;-87
2021/06/09 04:43:30;;;;;;;26.73;11.67;;;15.40;99.90;;;;;;5028956;28;20238;-86
2021/06/09 04:45:56;;;;;;;25.00;11.17;;;15.50;99.90;;;;;;5029380;28;20196;-87
2021/06/09 04:48:22;;;;;;;21.17;11.00;;;15.80;99.90;;;;;;5031191;28;20260;-86
2021/06/09 04:50:49;;;;;;;21.90;10.87;;;15.80;99.90;;;;;;5032956;28;20221;-85
2021/06/09 04:53:16;;;;;;;24.10;10.60;;;15.90;99.90;;;;;;5031234;28;20218;-85
2021/06/09 04:55:45;;;;;;;20.67;9.77;;;16.00;99.90;;;;;;5030345;28;20222;-84
2021/06/09 04:58:11;;;;;;;18.43;9.27;;;16.20;99.90;;;;;;5030338;28;20222;-84
2021/06/09 05:00:42;;;;;;;18.37;9.27;;;16.30;99.90;;;;;;5032073;28;20214;-85
2021/06/09 05:03:08;;;;;;;18.37;9.20;;;16.50;99.90;;;;;;5047220;28;20225;-83
2021/06/09 05:05:34;;;;;;;16.03;8.47;;;16.80;99.90;;;;;;5031252;28;20261;-84
2021/06/09 05:07:59;;;;;;;17.83;8.73;;;17.00;99.90;;;;;;5032259;28;20313;-86
2021/06/09 05:10:26;;;;;;;15.27;8.97;;;17.30;99.90;;;;;;5030731;28;20678;-87
2021/06/09 05:12:57;;;;;;;18.83;10.90;;;17.40;99.90;;;;;;5034084;28;20205;-87
2021/06/09 05:15:26;;;;;;;17.00;9.13;;;18.10;99.90;;;;;;5029718;28;20234;-85
2021/06/09 05:17:52;;;;;;;22.83;10.97;;;19.70;99.90;;;;;;5030893;28;20258;-83
2021/06/09 05:20:27;;;;;;;18.27;9.30;;;21.40;99.90;;;;;;5028672;28;20249;-86
2021/06/09 05:23:17;;;;;;;22.43;9.27;;;21.10;99.90;;;;;;5031887;28;20221;-87
2021/06/09 05:25:44;;;;;;;23.40;9.93;;;20.10;99.90;;;;;;5049334;28;20226;-83
2021/06/09 05:28:12;;;;;;;22.40;9.77;;;20.20;99.90;;;;;;5031780;28;20233;-85
2021/06/09 05:30:39;;;;;;;13.37;8.53;;;20.70;99.90;;;;;;5033890;28;20198;-86
2021/06/09 05:33:07;;;;;;;15.23;9.87;;;22.00;99.90;;;;;;5045966;28;20223;-87
2021/06/09 05:35:33;;;;;;;15.07;8.40;;;22.40;99.90;;;;;;5030366;28;20245;-84
2021/06/09 05:38:01;;;;;;;16.77;9.17;;;22.60;99.90;;;;;;5031576;28;20581;-86
2021/06/09 05:40:26;;;;;;;16.60;8.57;;;23.20;99.90;;;;;;5029779;28;20218;-85
2021/06/09 05:42:52;;;;;;;13.87;8.63;;;23.60;99.90;;;;;;5012673;28;20191;-87
2021/06/09 05:45:29;;;;;;;15.03;8.63;;;24.30;99.90;;;;;;4999088;28;20178;-84
2021/06/09 05:47:55;;;;;;;13.77;7.93;;;23.60;99.90;;;;;;5029913;28;20216;-86
2021/06/09 05:50:26;;;;;;;11.10;7.55;;;24.10;99.90;;;;;;5030599;28;20217;-86
2021/06/09 05:52:54;;;;;;;14.52;7.82;;;24.30;99.90;;;;;;5033830;28;20218;-86
2021/06/09 05:55:26;;;;;;;12.20;7.35;;;24.00;99.90;;;;;;5034127;28;20249;-85
2021/06/09 05:57:53;;;;;;;14.43;8.15;;;24.30;99.90;;;;;;5034218;28;20193;-83
2021/06/09 06:00:23;;;;;;;10.73;7.18;;;25.50;99.90;;;;;;5033300;28;20277;-85
2021/06/09 06:02:48;;;;;;;9.45;6.70;;;25.50;99.90;;;;;;5035251;28;20252;-85
2021/06/09 06:05:16;;;;;;;12.07;6.75;;;25.90;99.90;;;;;;5015506;28;20226;-85
2021/06/09 06:07:42;;;;;;;9.27;6.35;;;26.70;99.90;;;;;;5048792;28;20226;-85
2021/06/09 06:10:09;;;;;;;8.82;7.18;;;27.20;99.90;;;;;;5032876;28;20217;-85
2021/06/09 06:12:36;;;;;;;10.95;7.75;;;27.50;99.90;;;;;;5031753;28;20194;-83
2021/06/09 06:15:05;;;;;;;9.57;6.18;;;27.80;99.90;;;;;;5034990;28;20289;-84
2021/06/09 06:17:31;;;;;;;11.43;6.93;;;27.00;99.90;;;;;;5032396;28;20701;-85
2021/06/09 06:19:57;;;;;;;10.63;6.43;;;26.30;99.90;;;;;;5015703;28;20214;-85
2021/06/09 06:22:23;;;;;;;9.52;6.63;;;25.90;99.90;;;;;;5032641;28;20818;-84
2021/06/09 06:24:50;;;;;;;8.25;5.53;;;24.70;99.90;;;;;;5001287;28;20246;-85
2021/06/09 06:27:19;;;;;;;11.85;6.30;;;24.80;99.90;;;;;;5032655;28;20659;-84
2021/06/09 06:29:46;;;;;;;10.48;6.47;;;25.20;99.90;;;;;;5016895;28;20245;-85
2021/06/09 06:32:21;;;;;;;13.05;7.22;;;24.20;99.90;;;;;;5035042;28;20220;-86
2021/06/09 06:34:50;;;;;;;12.02;6.35;;;23.90;99.90;;;;;;5034827;28;20312;-82
2021/06/09 06:37:18;;;;;;;12.02;6.38;;;24.40;99.90;;;;;;5031274;28;20246;-87
2021/06/09 06:39:44;;;;;;;7.93;5.97;;;24.50;99.90;;;;;;5033001;28;20217;-87
2021/06/09 06:42:10;;;;;;;8.93;5.38;;;24.40;99.90;;;;;;5012750;28;20214;-93
2021/06/09 06:44:39;;;;;;;7.47;5.05;;;24.30;99.90;;;;;;5034083;28;20708;-91
2021/06/09 06:47:05;;;;;;;9.60;6.15;;;24.70;99.90;;;;;;5037429;28;20229;-94
2021/06/09 06:49:31;;;;;;;8.73;4.57;;;24.40;99.90;;;;;;5049244;28;20216;-94
2021/06/09 06:51:57;;;;;;;4.18;3.78;;;24.50;99.90;;;;;;5035603;28;20669;-95
2021/06/09 06:54:24;;;;;;;5.25;3.55;;;24.70;99.90;;;;;;5034487;28;20202;-94
2021/06/09 06:56:53;;;;;;;4.57;3.28;;;24.60;99.90;;;;;;5052382;28;20285;-95
2021/06/09 06:59:26;;;;;;;3.67;3.38;;;24.80;99.90;;;;;;5034715;28;20689;-93
2021/06/09 07:01:52;;;;;;;5.93;3.80;;;25.10;99.90;;;;;;5034655;28;20225;-93
2021/06/09 07:04:20;;;;;;;5.07;3.25;;;26.00;99.90;;;;;;5051124;28;20230;-92
2021/06/09 07:06:49;;;;;;;3.40;2.90;;;25.70;99.90;;;;;;5033642;28;20189;-93
2021/06/09 07:09:17;;;;;;;5.82;3.60;;;26.30;99.90;;;;;;5034087;28;20234;-92
2021/06/09 07:11:45;;;;;;;6.78;3.50;;;25.50;99.90;;;;;;5032627;28;20221;-93
2021/06/09 07:14:11;;;;;;;5.90;3.97;;;24.30;99.90;;;;;;5032964;28;20230;-91
2021/06/09 07:16:40;;;;;;;3.95;3.55;;;24.10;99.90;;;;;;5018220;28;20237;-93
2021/06/09 07:19:07;;;;;;;5.13;4.25;;;24.30;99.90;;;;;;5032523;28;20273;-92
2021/06/09 07:21:34;;;;;;;4.55;4.00;;;24.80;99.90;;;;;;5050484;28;20182;-94
2021/06/09 07:24:01;;;;;;;5.40;4.38;;;25.80;99.90;;;;;;5036169;28;20233;-94
2021/06/09 07:26:29;;;;;;;5.65;4.25;;;26.20;99.90;;;;;;5049678;28;20226;-94
2021/06/09 07:28:57;;;;;;;6.75;5.20;;;27.40;99.90;;;;;;5034227;28;20247;-94
2021/06/09 07:31:32;;;;;;;10.30;5.97;;;28.10;99.90;;;;;;5034654;28;20233;-93
2021/06/09 07:33:58;;;;;;;9.20;5.85;;;28.00;99.90;;;;;;5048166;28;20186;-95
2021/06/09 07:36:35;;;;;;;7.65;6.45;;;27.70;99.90;;;;;;5033819;28;20187;-95
2021/06/09 07:39:05;;;;;;;11.50;6.90;;;29.10;99.90;;;;;;5035306;28;20213;-94
2021/06/09 07:41:33;;;;;;;8.35;6.28;;;30.20;99.90;;;;;;5034341;28;20683;-94
2021/06/09 07:44:02;;;;;;;8.50;6.47;;;29.20;99.90;;;;;;5035942;28;20234;-94
2021/06/09 07:46:30;;;;;;;10.07;7.07;;;27.90;99.90;;;;;;5033826;28;20226;-95
2021/06/09 07:48:59;;;;;;;10.38;7.13;;;27.20;99.90;;;;;;5032687;28;20278;-94
2021/06/09 07:51:25;;;;;;;10.88;7.78;;;28.30;99.90;;;;;;5034008;28;20182;-94
2021/06/09 07:53:54;;;;;;;9.95;7.85;;;28.60;99.90;;;;;;5032072;28;20360;-94
2021/06/09 07:56:21;;;;;;;10.52;7.40;;;28.50;99.90;;;;;;5033743;28;20389;-94
2021/06/09 07:58:49;;;;;;;12.07;7.85;;;28.80;99.90;;;;;;5032385;28;20296;-95
2021/06/09 08:01:15;;;;;;;12.52;8.05;;;29.80;99.90;;;;;;5036219;28;20297;-94
2021/06/09 08:03:43;;;;;;;10.68;7.97;;;29.90;99.90;;;;;;5049030;28;20588;-95
2021/06/09 08:06:10;;;;;;;11.93;8.18;;;29.20;99.90;;;;;;5048055;28;20249;-94
2021/06/09 08:08:36;;;;;;;10.73;8.13;;;28.10;99.90;;;;;;5017386;28;20202;-95
2021/06/09 08:11:01;;;;;;;11.60;8.32;;;29.30;99.90;;;;;;5016415;28;20217;-93
2021/06/09 08:13:31;;;;;;;12.32;7.93;;;30.60;99.90;;;;;;5028182;28;20214;-94
2021/06/09 08:15:58;;;;;;;12.50;8.45;;;32.10;99.90;;;;;;5029934;28;20632;-93
2021/06/09 08:18:23;;;;;;;13.95;8.48;;;33.40;99.90;;;;;;5029838;28;20187;-92
2021/06/09 08:21:11;;;;;;;11.23;7.65;;;34.00;99.00;;;;;;5028712;28;21167;-93
2021/06/09 08:23:40;;;;;;;11.70;8.13;;;34.30;99.10;;;;;;5032843;28;20222;-92
2021/06/09 08:26:07;;;;;;;12.48;8.25;;;34.90;98.40;;;;;;5033329;28;20289;-93
2021/06/09 08:28:36;;;;;;;10.43;8.20;;;35.00;97.50;;;;;;5032056;28;20329;-93
2021/06/09 08:31:04;;;;;;;12.80;8.35;;;34.10;98.70;;;;;;5048503;28;20719;-92
2021/06/09 08:33:35;;;;;;;11.95;8.80;;;33.60;97.60;;;;;;5033575;28;20191;-91
2021/06/09 08:36:06;;;;;;;12.18;8.90;;;33.50;98.10;;;;;;5031826;28;20221;-92
2021/06/09 08:38:32;;;;;;;12.27;8.95;;;33.20;98.60;;;;;;5030402;28;20214;-92
2021/06/09 08:40:59;;;;;;;12.93;8.45;;;33.80;98.50;;;;;;5031545;28;20313;-92
2021/06/09 08:43:28;;;;;;;12.55;8.90;;;34.40;97.10;;;;;;5048544;28;20252;-93
2021/06/09 08:45:54;;;;;;;9.20;7.88;;;34.60;97.10;;;;;;5031256;28;20614;-93
2021/06/09 08:48:20;;;;;;;13.55;9.07;;;34.40;97.00;;;;;;5016180;28;20260;-92
2021/06/09 08:50:48;;;;;;;13.45;9.38;;;34.00;97.10;;;;;;5033708;28;20240;-92
2021/06/09 08:53:20;;;;;;;11.43;8.77;;;33.80;96.90;;;;;;5030127;28;20225;-94
2021/06/09 08:55:48;;;;;;;11.40;8.45;;;34.20;97.90;;;;;;5015804;28;20222;-93
2021/06/09 08:58:16;;;;;;;13.57;9.32;;;34.50;96.60;;;;;;5032845;28;20692;-93
2021/06/09 09:00:46;;;;;;;12.20;8.55;;;34.50;96.50;;;;;;5033000;28;20779;-92
2021/06/09 09:03:12;;;;;;;13.43;9.93;;;34.60;96.00;;;;;;5033765;28;20313;-94
2021/06/09 09:05:38;;;;;;;14.95;10.00;;;34.60;95.40;;;;;;5034976;28;20222;-93
2021/06/09 09:08:08;;;;;;;12.68;9.23;;;34.20;97.20;;;;;;5031661;28;20223;-93
2021/06/09 09:10:34;;;;;;;13.82;9.15;;;33.40;97.10;;;;;;5032056;28;20767;-94
2021/06/09 09:13:03;;;;;;;12.75;9.52;;;33.20;97.00;;;;;;5032519;28;20240;-92
2021/06/09 09:15:29;;;;;;;13.95;8.57;;;33.30;96.80;;;;;;5029599;28;20264;-92
2021/06/09 09:18:01;;;;;;;13.10;9.45;;;33.60;97.10;;;;;;5016166;28;20243;-93
2021/06/09 09:20:33;;;;;;;12.00;8.85;;;33.70;97.20;;;;;;5033295;28;20754;-93
2021/06/09 09:23:01;;;;;;;14.27;10.38;;;33.40;97.40;;;;;;5030414;28;20219;-93
2021/06/09 09:25:31;;;;;;;13.77;10.10;;;32.90;97.90;;;;;;5034195;28;20688;-93
2021/06/09 09:28:05;;;;;;;13.50;10.05;;;31.40;98.90;;;;;;5036504;28;20680;-91
2021/06/09 09:30:35;;;;;;;13.10;8.77;;;30.60;99.40;;;;;;5034690;28;20558;-93
2021/06/09 09:33:02;;;;;;;13.35;9.05;;;31.20;99.00;;;;;;5052448;28;20778;-91
2021/06/09 09:35:34;;;;;;;13.90;8.95;;;32.60;99.30;;;;;;5051296;28;20301;-92
2021/06/09 09:38:17;;;;;;;12.98;9.20;;;33.80;98.10;;;;;;5036133;28;20217;-90
2021/06/09 09:41:15;;;;;;;10.00;7.63;;;34.70;96.70;;;;;;5037333;28;20280;-93
2021/06/09 09:43:45;;;;;;;9.27;7.43;;;35.60;97.10;;;;;;5036858;28;20705;-91
2021/06/09 09:46:14;;;;;;;9.80;7.30;;;36.00;96.10;;;;;;5035219;28;21399;-92
2021/06/09 09:48:42;;;;;;;11.75;7.78;;;35.20;96.30;;;;;;5036666;28;20186;-91
2021/06/09 09:51:10;;;;;;;11.63;8.52;;;34.90;96.40;;;;;;5035657;28;20218;-91
2021/06/09 09:53:36;;;;;;;12.10;8.50;;;35.30;95.50;;;;;;5032997;28;21438;-93
2021/06/09 09:56:16;;;;;;;13.10;9.15;;;34.40;95.80;;;;;;5032908;28;20225;-91
2021/06/09 09:58:52;;;;;;;10.73;7.75;;;34.60;95.20;;;;;;5035638;28;21224;-93
2021/06/09 10:01:23;;;;;;;11.27;8.15;;;33.50;97.30;;;;;;5036288;28;20232;-93
2021/06/09 10:03:57;;;;;;;13.13;8.57;;;33.70;97.30;;;;;;5035873;28;21652;-92
2021/06/09 10:06:46;;;;;;;13.35;8.48;;;33.80;97.60;;;;;;5035395;28;20216;-90
2021/06/09 10:09:17;;;;;;;12.48;8.82;;;33.70;97.10;;;;;;5035419;28;20207;-91
2021/06/09 10:11:53;;;;;;;14.73;8.55;;;33.40;97.60;;;;;;5037582;28;20317;-92
2021/06/09 10:14:29;;;;;;;12.05;9.15;;;31.50;99.40;;;;;;5033204;28;20693;-92
2021/06/09 10:17:05;;;;;;;10.45;8.38;;;30.20;99.90;;;;;;5034096;28;20791;-92
2021/06/09 10:19:39;;;;;;;11.52;8.95;;;30.20;99.90;;;;;;5047837;28;20916;-91
2021/06/09 10:22:06;;;;;;;14.38;9.02;;;29.30;99.90;;;;;;5035425;28;20185;-92
2021/06/09 10:25:12;;;;;;;11.52;8.95;;;29.20;99.90;;;;;;5036333;28;20252;-92
2021/06/09 10:27:47;;;;;;;14.63;9.80;;;26.90;99.90;;;;;;5025957;28;20271;-92
2021/06/09 10:30:24;;;;;;;14.77;10.80;;;26.20;99.90;;;;;;5032915;28;20225;-93
2021/06/09 10:32:58;;;;;;;12.75;9.45;;;26.70;99.90;;;;;;5036562;28;20329;-95
2021/06/09 10:35:26;;;;;;;14.80;9.43;;;27.80;99.90;;;;;;5034324;28;20222;-94
2021/06/09 10:37:53;;;;;;;12.38;8.55;;;28.60;99.90;;;;;;5036418;28;20222;-95
2021/06/09 10:40:22;;;;;;;13.60;8.73;;;27.30;99.90;;;;;;5038805;28;20240;-95
2021/06/09 10:42:49;;;;;;;12.20;9.32;;;27.00;99.90;;;;;;5035604;28;20197;-93
2021/06/09 10:45:16;;;;;;;14.25;10.85;;;27.20;99.90;;;;;;5035076;28;20517;-94
2021/06/09 10:47:45;;;;;;;11.70;8.48;;;27.50;99.90;;;;;;5035144;28;20221;-94
2021/06/09 10:50:14;;;;;;;14.32;9.30;;;28.00;99.90;;;;;;5051370;28;20229;-95
2021/06/09 10:52:41;;;;;;;12.10;8.55;;;28.60;99.90;;;;;;5035896;28;20244;-94
2021/06/09 10:55:09;;;;;;;13.52;8.68;;;28.20;99.90;;;;;;5032227;28;20308;-95
2021/06/09 10:57:36;;;;;;;12.20;8.20;;;27.60;99.90;;;;;;5034028;28;20239;-95
2021/06/09 11:00:05;;;;;;;12.13;9.32;;;27.50;99.90;;;;;;5029159;28;20295;-93
2021/06/09 11:02:34;;;;;;;14.52;10.00;;;27.30;99.90;;;;;;5031017;28;20245;-94
2021/06/09 11:05:07;;;;;;;14.07;8.80;;;27.50;99.90;;;;;;5032680;28;20756;-94
2021/06/09 11:07:41;;;;;;;12.10;8.27;;;27.40;99.90;;;;;;5033684;28;20210;-94
2021/06/09 11:10:16;;;;;;;14.23;9.98;;;27.40;99.90;;;;;;5040059;28;20250;-93
2021/06/09 11:12:50;;;;;;;16.25;9.25;;;27.20;99.90;;;;;;5029413;28;20185;-93
2021/06/09 11:15:23;;;;;;;13.57;9.23;;;26.60;99.90;;;;;;5032466;28;20239;-93
2021/06/09 11:17:56;;;;;;;14.55;10.23;;;26.50;99.90;;;;;;5030587;28;20510;-94
2021/06/09 11:20:33;;;;;;;13.35;9.02;;;26.90;99.90;;;;;;5028782;28;20206;-94
2021/06/09 11:23:24;;;;;;;12.95;9.65;;;26.60;99.90;;;;;;5029094;28;20219;-93
2021/06/09 11:25:50;;;;;;;13.52;9.32;;;26.50;99.90;;;;;;5029083;28;20218;-94
2021/06/09 11:28:18;;;;;;;17.40;9.88;;;26.10;99.90;;;;;;5029439;28;20232;-92
2021/06/09 11:31:06;;;;;;;18.73;10.73;;;25.90;99.90;;;;;;5032362;28;20302;-94
2021/06/09 11:33:43;;;;;;;16.05;9.73;;;26.80;99.90;;;;;;5048614;28;20303;-93
2021/06/09 11:36:18;;;;;;;15.10;10.00;;;26.70;99.90;;;;;;5034877;28;20210;-92
2021/06/09 11:38:46;;;;;;;15.98;10.73;;;26.90;99.90;;;;;;5032444;28;20222;-93
2021/06/09 11:41:16;;;;;;;14.38;8.95;;;26.60;99.90;;;;;;5032246;28;20218;-94
2021/06/09 11:43:48;;;;;;;18.63;11.00;;;26.10;99.90;;;;;;5032887;28;20272;-94
2021/06/09 11:46:16;;;;;;;16.10;9.40;;;25.80;99.90;;;;;;5031412;28;20226;-93
2021/06/09 11:48:58;;;;;;;14.50;9.30;;;25.60;99.90;;;;;;5038288;28;20587;-91
2021/06/09 11:51:45;;;;;;;16.25;11.10;;;25.70;99.90;;;;;;5045020;28;20257;-93
2021/06/09 11:54:27;;;;;;;14.02;9.10;;;25.60;99.90;;;;;;5030656;28;20222;-93
2021/06/09 11:56:58;;;;;;;11.43;9.18;;;25.50;99.90;;;;;;5032245;28;20211;-93
2021/06/09 11:59:28;;;;;;;11.60;7.72;;;25.80;99.90;;;;;;5030963;28;20206;-92
2021/06/09 12:02:01;;;;;;;15.85;8.60;;;25.30;99.90;;;;;;5035160;28;20218;-93
2021/06/09 12:04:29;;;;;;;12.18;8.77;;;25.20;99.90;;;;;;5032952;28;20222;-93
2021/06/09 12:06:59;;;;;;;14.35;9.52;;;25.20;99.90;;;;;;5034658;28;20175;-92
2021/06/09 12:09:42;;;;;;;14.38;8.38;;;25.60;99.90;;;;;;5035240;28;20253;-94
2021/06/09 12:12:21;;;;;;;13.77;8.63;;;25.10;99.90;;;;;;5031314;28;20247;-93
2021/06/09 12:14:53;;;;;;;12.52;8.35;;;25.20;99.90;;;;;;5032508;28;20241;-93
2021/06/09 12:17:25;;;;;;;12.55;8.55;;;25.00;99.90;;;;;;5033468;28;20230;-93
2021/06/09 12:20:20;;;;;;;11.23;7.90;;;24.80;99.90;;;;;;5032365;28;20258;-94
2021/06/09 12:22:50;;;;;;;11.27;8.32;;;24.90;99.90;;;;;;5031455;28;20218;-93
2021/06/09 12:25:27;;;;;;;11.52;8.00;;;25.20;99.90;;;;;;5035619;28;20598;-95
2021/06/09 12:28:04;;;;;;;11.20;7.70;;;25.10;99.90;;;;;;5034165;28;20185;-93
2021/06/09 12:30:32;;;;;;;11.38;7.47;;;24.70;99.90;;;;;;5033231;28;20221;-92
2021/06/09 12:32:58;;;;;;;12.00;7.75;;;24.90;99.90;;;;;;5047309;28;20229;-94
2021/06/09 12:35:25;;;;;;;10.63;6.95;;;24.80;99.90;;;;;;5031330;28;20214;-95
2021/06/09 12:37:54;;;;;;;15.55;8.50;;;25.10;99.90;;;;;;5031978;28;20342;-93
2021/06/09 12:40:25;;;;;;;12.75;7.35;;;25.10;99.90;;;;;;5030117;28;20245;-92
2021/06/09 12:42:55;;;;;;;10.68;7.97;;;25.10;99.90;;;;;;5049589;28;20272;-93
2021/06/09 12:45:25;;;;;;;9.00;6.95;;;25.20;99.90;;;;;;5031639;28;20195;-92
2021/06/09 12:47:52;;;;;;;10.48;7.25;;;25.30;99.90;;;;;;5032932;28;20410;-93
2021/06/09 12:50:22;;;;;;;10.95;7.47;;;25.40;99.90;;;;;;5034109;28;20217;-91
2021/06/09 12:52:59;;;;;;;12.00;7.53;;;25.20;99.90;;;;;;5033099;28;20688;-93
2021/06/09 12:55:34;;;;;;;7.82;6.57;;;25.10;99.90;;;;;;5032344;28;20734;-92
2021/06/09 12:58:05;;;;;;;9.60;7.10;;;25.20;99.90;;;;;;5033095;28;20228;-92
2021/06/09 13:00:34;;;;;;;11.93;7.93;;;25.00;99.90;;;;;;5032214;28;20301;-93
2021/06/09 13:03:14;;;;;;;12.93;7.68;;;25.30;99.90;;;;;;5047148;28;20276;-92